createdAt,value
2022-08-14T00:00:43.922Z,3.50
2022-08-14T00:02:53.073Z,3.40
2022-08-14T00:05:01.773Z,3.43
2022-08-14T00:07:11.116Z,3.73
2022-08-14T00:09:21.122Z,3.70
2022-08-14T00:11:31.826Z,3.30
2022-08-14T00:13:40.813Z,3.77
2022-08-14T00:15:51.592Z,4.07
2022-08-14T00:18:00.195Z,3.63
2022-08-14T00:20:09.413Z,3.57
2022-08-14T00:22:44.634Z,3.40
2022-08-14T00:24:48.825Z,3.67
2022-08-14T00:27:02.053Z,3.43
2022-08-14T00:29:11.002Z,3.60
2022-08-14T00:31:20.287Z,3.67
2022-08-14T00:33:51.595Z,3.70
2022-08-14T00:36:36.866Z,3.60
2022-08-14T00:38:29.637Z,3.37
2022-08-14T00:40:46.414Z,3.30
2022-08-14T00:42:56.570Z,3.37
2022-08-14T00:45:05.423Z,3.10
2022-08-14T00:47:15.898Z,3.33
2022-08-14T00:49:24.649Z,3.20
2022-08-14T00:51:36.871Z,3.50
2022-08-14T00:53:50.323Z,3.70
2022-08-14T00:56:02.737Z,3.53
2022-08-14T00:58:34.253Z,3.60
2022-08-14T01:00:47.636Z,3.40
2022-08-14T01:03:00.334Z,3.57
2022-08-14T01:05:25.807Z,3.80
2022-08-14T01:07:56.816Z,3.63
2022-08-14T01:10:06.952Z,3.80
2022-08-14T01:12:27.040Z,3.70
2022-08-14T01:14:37.663Z,3.67
2022-08-14T01:16:53.049Z,3.70
2022-08-14T01:19:21.915Z,3.27
2022-08-14T01:21:38.583Z,4.07
2022-08-14T01:23:48.142Z,3.97
2022-08-14T01:26:02.450Z,3.80
2022-08-14T01:28:46.383Z,4.50
2022-08-14T01:30:43.280Z,4.07
2022-08-14T01:32:53.110Z,4.17
2022-08-14T01:35:21.220Z,3.90
2022-08-14T01:37:37.435Z,3.43
2022-08-14T01:39:54.479Z,4.07
2022-08-14T01:42:03.175Z,3.50
2022-08-14T01:44:33.363Z,3.47
2022-08-14T01:46:44.326Z,3.83
2022-08-14T01:48:57.521Z,4.17
2022-08-14T01:51:19.933Z,3.47
2022-08-14T01:53:32.767Z,4.00
2022-08-14T01:55:44.343Z,3.60
2022-08-14T01:58:01.463Z,3.63
2022-08-14T02:00:21.378Z,3.53
2022-08-14T02:02:30.063Z,3.50
2022-08-14T02:04:57.361Z,3.57
2022-08-14T02:07:06.843Z,3.40
2022-08-14T02:09:25.479Z,3.97
2022-08-14T02:11:35.359Z,3.80
2022-08-14T02:13:44.479Z,4.30
2022-08-14T02:18:18.375Z,3.50
2022-08-14T02:20:27.031Z,3.90
2022-08-14T02:22:47.241Z,3.87
2022-08-14T02:24:58.303Z,3.23
2022-08-14T02:28:24.609Z,3.60
2022-08-14T02:29:59.358Z,4.00
2022-08-14T02:32:11.251Z,3.90
2022-08-14T02:34:38.750Z,3.97
2022-08-14T02:37:05.131Z,4.00
2022-08-14T02:39:15.644Z,3.43
2022-08-14T02:41:28.603Z,3.60
2022-08-14T02:43:46.613Z,3.37
2022-08-14T02:45:57.071Z,3.40
2022-08-14T02:48:10.238Z,3.40
2022-08-14T02:50:39.095Z,3.60
2022-08-14T02:52:57.622Z,3.43
2022-08-14T02:55:15.491Z,3.73
2022-08-14T02:57:40.078Z,3.23
2022-08-14T02:59:51.243Z,3.53
2022-08-14T03:01:59.903Z,3.63
2022-08-14T03:04:10.793Z,3.70
2022-08-14T03:06:43.537Z,3.73
2022-08-14T03:08:49.349Z,4.03
2022-08-14T03:10:57.898Z,3.50
2022-08-14T03:13:13.809Z,3.53
2022-08-14T03:15:29.887Z,3.97
2022-08-14T03:17:57.807Z,3.50
2022-08-14T03:20:07.640Z,3.70
2022-08-14T03:22:20.018Z,3.40
2022-08-14T03:24:28.495Z,3.60
2022-08-14T03:26:37.080Z,3.80
2022-08-14T03:28:51.231Z,3.27
2022-08-14T03:31:00.353Z,3.10
2022-08-14T03:33:10.430Z,3.30
2022-08-14T03:35:19.886Z,3.30
2022-08-14T03:39:10.381Z,3.50
2022-08-14T03:39:57.609Z,3.60
2022-08-14T03:42:06.512Z,3.10
2022-08-14T03:45:19.913Z,3.33
2022-08-14T03:46:58.494Z,3.13
2022-08-14T03:49:08.691Z,3.00
2022-08-14T03:51:22.451Z,3.60
2022-08-14T03:53:34.209Z,3.20
2022-08-14T03:55:44.204Z,3.40
2022-08-14T03:57:53.431Z,3.80
2022-08-14T04:00:06.477Z,3.00
2022-08-14T04:02:32.940Z,3.50
2022-08-14T04:04:44.585Z,3.37
2022-08-14T04:06:53.237Z,2.97
2022-08-14T04:09:08.244Z,3.10
2022-08-14T04:11:18.440Z,3.13
2022-08-14T04:13:28.022Z,3.10
2022-08-14T04:15:56.546Z,3.40
2022-08-14T04:18:10.376Z,3.57
2022-08-14T04:20:25.412Z,3.60
2022-08-14T04:22:34.919Z,2.97
2022-08-14T04:24:45.355Z,3.40
2022-08-14T04:26:58.247Z,3.60
2022-08-14T04:29:15.319Z,3.47
2022-08-14T04:33:10.489Z,3.57
2022-08-14T04:33:55.628Z,3.03
2022-08-14T04:36:04.826Z,3.33
2022-08-14T04:38:36.410Z,3.80
2022-08-14T04:41:05.564Z,3.27
2022-08-14T04:43:39.292Z,3.20
2022-08-14T04:45:51.043Z,3.70
2022-08-14T04:48:12.915Z,3.90
2022-08-14T04:50:33.731Z,3.70
2022-08-14T04:52:53.897Z,3.77
2022-08-14T04:55:05.045Z,3.80
2022-08-14T04:57:14.990Z,3.70
2022-08-14T04:59:24.346Z,3.83
2022-08-14T05:01:34.009Z,3.70
2022-08-14T05:03:50.860Z,3.50
2022-08-14T05:06:02.963Z,3.87
2022-08-14T05:08:31.413Z,3.97
2022-08-14T05:10:44.192Z,3.70
2022-08-14T05:13:12.997Z,3.53
2022-08-14T05:15:22.375Z,3.43
2022-08-14T05:17:43.556Z,3.67
2022-08-14T05:21:56.518Z,3.87
2022-08-14T05:22:22.911Z,3.50
2022-08-14T05:24:35.871Z,3.23
2022-08-14T05:26:47.243Z,3.73
2022-08-14T05:28:56.015Z,3.40
2022-08-14T05:31:06.434Z,3.10
2022-08-14T05:33:16.320Z,3.17
2022-08-14T05:35:26.466Z,3.10
2022-08-14T05:37:35.015Z,2.93
2022-08-14T05:39:43.966Z,3.03
2022-08-14T05:41:54.294Z,3.40
2022-08-14T05:44:03.198Z,3.03
2022-08-14T05:46:15.300Z,3.10
2022-08-14T05:48:33.011Z,3.00
2022-08-14T05:50:45.174Z,3.30
2022-08-14T05:52:55.129Z,3.40
2022-08-14T05:55:03.966Z,3.23
2022-08-14T05:57:12.473Z,3.30
2022-08-14T05:59:21.011Z,3.20
2022-08-14T06:01:45.613Z,3.00
2022-08-14T06:03:55.278Z,3.17
2022-08-14T06:06:05.451Z,2.93
2022-08-14T06:08:31.215Z,3.00
2022-08-14T06:10:44.413Z,2.90
2022-08-14T06:12:56.532Z,2.97
2022-08-14T06:15:08.163Z,2.83
2022-08-14T06:17:26.220Z,2.73
2022-08-14T06:19:34.870Z,2.97
2022-08-14T06:21:44.784Z,2.73
2022-08-14T06:23:53.614Z,3.00
2022-08-14T06:26:02.467Z,2.60
2022-08-14T06:28:27.570Z,2.60
2022-08-14T06:30:45.966Z,2.73
2022-08-14T06:32:56.443Z,2.70
2022-08-14T06:35:13.025Z,3.00
2022-08-14T06:37:23.653Z,2.80
2022-08-14T06:39:37.370Z,3.17
2022-08-14T06:41:59.383Z,3.10
2022-08-14T06:44:09.700Z,2.83
2022-08-14T06:46:23.195Z,2.93
2022-08-14T06:48:41.929Z,3.10
2022-08-14T06:50:51.111Z,3.40
2022-08-14T06:53:02.014Z,3.40
2022-08-14T06:55:11.734Z,3.80
2022-08-14T06:57:21.818Z,3.67
2022-08-14T06:59:30.501Z,3.60
2022-08-14T07:01:59.690Z,3.63
2022-08-14T07:04:25.837Z,3.37
2022-08-14T07:06:46.403Z,3.50
2022-08-14T07:08:56.977Z,3.27
2022-08-14T07:11:08.159Z,3.50
2022-08-14T07:13:19.215Z,3.53
2022-08-14T07:15:28.575Z,3.63
2022-08-14T07:17:45.565Z,3.37
2022-08-14T07:19:55.307Z,3.60
2022-08-14T07:22:05.511Z,3.67
2022-08-14T07:24:31.392Z,3.20
2022-08-14T07:26:41.063Z,3.50
2022-08-14T07:28:49.851Z,4.13
2022-08-14T07:31:05.148Z,3.27
2022-08-14T07:33:14.994Z,3.40
2022-08-14T07:35:23.737Z,3.67
2022-08-14T07:37:32.370Z,3.93
2022-08-14T07:39:45.649Z,3.60
2022-08-14T07:41:54.237Z,3.77
2022-08-14T07:44:29.757Z,3.33
2022-08-14T07:46:32.230Z,3.57
2022-08-14T07:48:43.480Z,3.27
2022-08-14T07:50:52.057Z,3.00
2022-08-14T07:53:01.739Z,3.13
2022-08-14T07:55:15.326Z,3.50
2022-08-14T07:57:29.690Z,3.07
2022-08-14T07:59:41.096Z,3.53
2022-08-14T08:01:51.908Z,3.00
2022-08-14T08:04:01.314Z,3.20
2022-08-14T08:06:17.440Z,2.77
2022-08-14T08:08:27.712Z,3.03
2022-08-14T08:11:01.835Z,3.00
2022-08-14T08:13:12.430Z,2.87
2022-08-14T08:15:21.142Z,2.57
2022-08-14T08:17:34.486Z,2.90
2022-08-14T08:19:48.316Z,2.50
2022-08-14T08:22:01.214Z,2.40
2022-08-14T08:24:10.491Z,2.30
2022-08-14T08:26:22.970Z,2.27
2022-08-14T08:28:32.814Z,2.27
2022-08-14T08:30:49.239Z,2.10
2022-08-14T08:32:59.819Z,2.20
2022-08-14T08:35:12.012Z,2.37
2022-08-14T08:37:20.660Z,2.00
2022-08-14T08:39:30.991Z,2.00
2022-08-14T08:41:59.620Z,2.17
2022-08-14T08:44:31.179Z,2.00
2022-08-14T08:46:37.835Z,2.00
2022-08-14T08:48:52.195Z,1.80
2022-08-14T08:51:05.965Z,2.20
2022-08-14T08:53:14.876Z,2.00
2022-08-14T08:55:41.343Z,1.90
2022-08-14T08:57:57.144Z,2.00
2022-08-14T09:00:25.298Z,1.90
2022-08-14T09:02:34.975Z,1.83
2022-08-14T09:04:53.451Z,1.80
2022-08-14T09:07:10.156Z,2.10
2022-08-14T09:09:20.762Z,1.87
2022-08-14T09:11:30.842Z,2.00
2022-08-14T09:13:42.424Z,1.90
2022-08-14T09:15:51.602Z,1.73
2022-08-14T09:18:04.343Z,2.07
2022-08-14T09:20:14.175Z,2.30
2022-08-14T09:22:47.694Z,2.03
2022-08-14T09:24:57.455Z,2.10
2022-08-14T09:27:09.392Z,1.93
2022-08-14T09:29:32.491Z,1.90
2022-08-14T09:31:52.721Z,1.97
2022-08-14T09:34:19.744Z,1.87
2022-08-14T09:37:06.542Z,1.80
2022-08-14T09:39:23.459Z,1.87
2022-08-14T09:42:20.903Z,1.60
2022-08-14T09:44:08.650Z,1.80
2022-08-14T09:46:21.170Z,1.83
2022-08-14T09:48:34.275Z,2.00
2022-08-14T09:50:47.435Z,1.70
2022-08-14T09:52:58.070Z,1.70
2022-08-14T09:55:07.691Z,2.00
2022-08-14T09:57:27.609Z,1.70
2022-08-14T09:59:46.289Z,2.13
2022-08-14T10:02:01.306Z,1.90
2022-08-14T10:04:36.544Z,1.90
2022-08-14T10:06:47.895Z,1.80
2022-08-14T10:09:00.714Z,1.80
2022-08-14T10:11:23.524Z,2.10
2022-08-14T10:13:43.173Z,1.90
2022-08-14T10:16:02.088Z,1.90
2022-08-14T10:18:17.437Z,1.80
2022-08-14T10:20:40.536Z,1.80
2022-08-14T10:23:12.882Z,1.90
2022-08-14T10:25:22.580Z,1.77
2022-08-14T10:27:31.350Z,1.83
2022-08-14T10:29:42.132Z,1.97
2022-08-14T10:31:59.324Z,1.63
2022-08-14T10:34:13.436Z,1.90
2022-08-14T10:36:37.237Z,1.70
2022-08-14T10:38:58.770Z,1.80
2022-08-14T10:41:14.691Z,1.90
2022-08-14T10:43:26.922Z,1.80
2022-08-14T10:45:46.228Z,1.83
2022-08-14T10:48:08.912Z,1.80
2022-08-14T10:50:36.663Z,1.77
2022-08-14T10:52:46.787Z,1.73
2022-08-14T10:54:56.275Z,1.83
2022-08-14T10:57:20.395Z,2.00
2022-08-14T10:59:34.862Z,1.60
2022-08-14T11:01:47.195Z,1.70
2022-08-14T11:03:57.412Z,1.67
2022-08-14T11:06:18.812Z,1.73
2022-08-14T11:08:32.832Z,1.50
2022-08-14T11:10:46.989Z,1.70
2022-08-14T11:12:58.707Z,1.60
2022-08-14T11:15:07.811Z,1.80
2022-08-14T11:17:21.699Z,1.83
2022-08-14T11:19:33.619Z,1.70
2022-08-14T11:21:46.594Z,1.73
2022-08-14T11:23:57.426Z,1.60
2022-08-14T11:26:08.276Z,2.00
2022-08-14T11:28:19.277Z,1.60
2022-08-14T11:30:51.056Z,1.43
2022-08-14T11:32:57.862Z,1.70
2022-08-14T11:35:07.361Z,1.87
2022-08-14T11:37:25.706Z,1.77
2022-08-14T11:39:45.740Z,1.60
2022-08-14T11:41:58.371Z,1.70
2022-08-14T11:44:13.248Z,1.60
2022-08-14T11:46:30.109Z,1.60
2022-08-14T11:48:59.205Z,1.70
2022-08-14T11:51:14.931Z,1.73
2022-08-14T11:53:31.290Z,1.60
2022-08-14T11:55:40.838Z,1.70
2022-08-14T11:57:59.427Z,1.80
2022-08-14T12:00:09.996Z,1.60
2022-08-14T12:02:24.283Z,1.73
2022-08-14T12:04:53.484Z,1.50
2022-08-14T12:07:03.946Z,1.47
2022-08-14T12:09:15.423Z,1.53
2022-08-14T12:11:24.105Z,1.73
2022-08-14T12:13:34.798Z,1.80
2022-08-14T12:15:44.727Z,1.60
2022-08-14T12:17:55.918Z,1.63
2022-08-14T12:20:06.598Z,1.40
2022-08-14T12:22:29.444Z,1.70
2022-08-14T12:24:40.886Z,1.70
2022-08-14T12:26:57.718Z,1.70
2022-08-14T12:29:08.900Z,1.60
2022-08-14T12:31:20.631Z,1.50
2022-08-14T12:33:33.763Z,1.60
2022-08-14T12:35:44.356Z,1.60
2022-08-14T12:37:54.996Z,1.80
2022-08-14T12:40:20.662Z,1.80
2022-08-14T12:45:46.891Z,1.87
2022-08-14T12:48:21.092Z,1.60
2022-08-14T12:53:40.019Z,1.80
2022-08-14T12:56:22.005Z,1.80
2022-08-14T12:58:36.468Z,2.27
2022-08-14T13:01:16.300Z,1.80
2022-08-14T13:03:29.527Z,1.70
2022-08-14T13:05:38.932Z,1.97
2022-08-14T13:07:49.347Z,1.80
2022-08-14T13:10:00.775Z,2.00
2022-08-14T13:12:56.802Z,2.00
2022-08-14T13:15:00.918Z,2.13
2022-08-14T13:17:11.732Z,2.00
2022-08-14T13:19:20.556Z,2.20
2022-08-14T13:21:35.172Z,2.03
2022-08-14T13:24:00.536Z,2.17
2022-08-14T13:26:10.819Z,2.17
2022-08-14T13:28:33.768Z,2.57
2022-08-14T13:30:46.978Z,2.13
2022-08-14T13:32:58.055Z,2.40
2022-08-14T13:35:12.053Z,2.00
2022-08-14T13:37:22.808Z,2.50
2022-08-14T13:39:36.216Z,2.10
2022-08-14T13:41:47.111Z,2.47
2022-08-14T13:43:59.952Z,2.67
2022-08-14T13:46:11.473Z,2.40
2022-08-14T13:48:32.589Z,2.17
2022-08-14T13:50:43.126Z,2.57
2022-08-14T13:52:55.107Z,2.50
2022-08-14T13:55:06.999Z,2.70
2022-08-14T13:57:17.830Z,2.80
2022-08-14T13:59:38.026Z,2.60
2022-08-14T14:01:51.904Z,2.63
2022-08-14T14:04:01.050Z,2.93
2022-08-14T14:06:11.735Z,2.57
2022-08-14T14:08:43.072Z,2.63
2022-08-14T14:10:53.857Z,2.53
2022-08-14T14:13:05.256Z,2.63
2022-08-14T14:15:18.478Z,2.53
2022-08-14T14:17:32.195Z,3.00
2022-08-14T14:19:41.543Z,2.80
2022-08-14T14:21:52.062Z,3.10
2022-08-14T14:24:01.051Z,2.73
2022-08-14T14:26:14.069Z,2.97
2022-08-14T14:28:24.747Z,2.60
2022-08-14T14:30:51.988Z,2.63
2022-08-14T14:33:05.281Z,2.77
2022-08-14T14:35:20.687Z,2.80
2022-08-14T14:37:40.764Z,2.50
2022-08-14T14:40:53.700Z,2.87
2022-08-14T14:42:31.616Z,2.87
2022-08-14T14:44:42.372Z,3.20
2022-08-14T14:46:54.865Z,2.50
2022-08-14T14:49:07.705Z,2.60
2022-08-14T14:51:18.131Z,2.37
2022-08-14T14:53:28.361Z,2.63
2022-08-14T14:55:59.562Z,2.80
2022-08-14T14:58:11.983Z,2.60
2022-08-14T15:00:22.795Z,2.60
2022-08-14T15:02:38.242Z,3.00
2022-08-14T15:04:48.118Z,2.50
2022-08-14T15:06:58.070Z,2.90
2022-08-14T15:09:08.967Z,2.50
2022-08-14T15:11:18.048Z,2.57
2022-08-14T15:13:29.560Z,3.00
2022-08-14T15:15:42.347Z,2.40
2022-08-14T15:17:54.756Z,2.60
2022-08-14T15:20:05.714Z,2.33
2022-08-14T15:22:14.728Z,2.50
2022-08-14T15:24:27.063Z,2.57
2022-08-14T15:26:36.099Z,2.57
2022-08-14T15:28:45.131Z,2.47
2022-08-14T15:30:59.005Z,2.90
2022-08-14T15:33:10.106Z,2.47
2022-08-14T15:35:25.698Z,2.47
2022-08-14T15:37:42.356Z,2.60
2022-08-14T15:39:52.712Z,2.50
2022-08-14T15:42:02.110Z,2.50
2022-08-14T15:44:18.942Z,2.40
2022-08-14T15:46:43.383Z,2.60
2022-08-14T15:48:56.348Z,2.30
2022-08-14T15:51:05.628Z,2.57
2022-08-14T15:53:14.823Z,2.47
2022-08-14T15:55:24.199Z,2.40
2022-08-14T15:57:32.728Z,2.10
2022-08-14T15:59:59.978Z,2.40
2022-08-14T16:02:09.601Z,2.30
2022-08-14T16:04:24.110Z,2.40
2022-08-14T16:06:33.576Z,2.30
2022-08-14T16:08:43.722Z,2.40
2022-08-14T16:10:52.560Z,2.10
2022-08-14T16:13:02.006Z,2.20
2022-08-14T16:15:11.712Z,2.03
2022-08-14T16:17:22.013Z,2.43
2022-08-14T16:19:43.941Z,2.23
2022-08-14T16:22:01.683Z,2.23
2022-08-14T16:24:28.095Z,2.23
2022-08-14T16:26:37.532Z,2.20
2022-08-14T16:28:46.199Z,2.20
2022-08-14T16:31:00.791Z,2.23
2022-08-14T16:33:11.838Z,2.27
2022-08-14T16:35:55.819Z,2.33
2022-08-14T16:38:19.093Z,2.27
2022-08-14T16:40:43.647Z,1.90
2022-08-14T16:43:12.563Z,2.30
2022-08-14T16:45:25.630Z,2.10
2022-08-14T16:47:36.298Z,1.97
2022-08-14T16:50:04.696Z,1.90
2022-08-14T16:52:25.598Z,1.87
2022-08-14T16:54:47.933Z,1.90
2022-08-14T16:56:57.400Z,2.20
2022-08-14T16:59:08.167Z,2.20
2022-08-14T17:01:23.067Z,2.30
2022-08-14T17:03:40.789Z,2.40
2022-08-14T17:05:51.101Z,2.17
2022-08-14T17:08:32.653Z,2.30
2022-08-14T17:10:55.922Z,2.30
2022-08-14T17:13:18.277Z,2.20
2022-08-14T17:15:26.849Z,2.20
2022-08-14T17:17:57.656Z,3.50
2022-08-14T17:20:39.217Z,2.10
2022-08-14T17:22:48.655Z,2.03
2022-08-14T17:25:03.495Z,2.20
2022-08-14T17:27:18.402Z,1.90
2022-08-14T17:29:29.388Z,2.10
2022-08-14T17:31:57.825Z,2.13
2022-08-14T17:34:08.397Z,2.20
2022-08-14T17:36:27.254Z,2.33
2022-08-14T17:38:40.256Z,2.10
2022-08-14T17:41:10.833Z,2.33
2022-08-14T17:43:22.327Z,2.13
2022-08-14T17:45:47.106Z,2.30
2022-08-14T17:47:56.942Z,2.17
2022-08-14T17:51:00.373Z,2.10
2022-08-14T17:52:40.808Z,2.07
2022-08-14T17:54:52.734Z,1.97
2022-08-14T17:57:13.403Z,2.20
2022-08-14T17:59:23.438Z,2.10
2022-08-14T18:01:32.722Z,2.13
2022-08-14T18:03:50.218Z,2.20
2022-08-14T18:06:06.594Z,2.50
2022-08-14T18:08:32.218Z,2.50
2022-08-14T18:10:54.891Z,2.53
2022-08-14T18:13:10.674Z,3.47
2022-08-14T18:15:19.556Z,2.50
2022-08-14T18:17:28.997Z,2.60
2022-08-14T18:19:41.577Z,2.60
2022-08-14T18:21:56.610Z,2.70
2022-08-14T18:24:20.360Z,2.63
2022-08-14T18:26:36.022Z,2.60
2022-08-14T18:28:52.069Z,2.77
2022-08-14T18:31:15.831Z,2.80
2022-08-14T18:33:26.357Z,2.90
2022-08-14T18:35:46.322Z,2.90
2022-08-14T18:38:26.363Z,2.90
2022-08-14T18:40:45.969Z,3.03
2022-08-14T18:42:59.226Z,3.20
2022-08-14T18:45:15.974Z,2.90
2022-08-14T18:47:28.813Z,3.13
2022-08-14T18:49:57.767Z,3.10
2022-08-14T18:52:18.605Z,3.40
2022-08-14T18:54:33.247Z,3.00
2022-08-14T18:56:58.692Z,3.47
2022-08-14T18:59:27.358Z,3.60
2022-08-14T19:01:55.950Z,3.73
2022-08-14T19:04:08.512Z,3.57
2022-08-14T19:06:17.342Z,3.93
2022-08-14T19:08:27.589Z,4.23
2022-08-14T19:10:37.526Z,4.73
2022-08-14T19:13:11.795Z,4.60
2022-08-14T19:15:25.946Z,5.00
2022-08-14T19:18:14.034Z,5.27
2022-08-14T19:20:18.707Z,5.33
2022-08-14T19:22:31.773Z,5.10
2022-08-14T19:24:45.228Z,4.67
2022-08-14T19:27:16.452Z,4.80
2022-08-14T19:29:37.904Z,4.63
2022-08-14T19:31:55.375Z,5.03
2022-08-14T19:34:07.286Z,5.10
2022-08-14T19:36:28.774Z,4.70
2022-08-14T19:38:52.398Z,4.53
2022-08-14T19:41:02.047Z,4.67
2022-08-14T19:43:11.957Z,4.90
2022-08-14T19:45:23.926Z,4.73
2022-08-14T19:47:38.730Z,4.10
2022-08-14T19:50:08.617Z,4.60
2022-08-14T19:52:23.682Z,4.17
2022-08-14T19:54:34.560Z,4.33
2022-08-14T19:56:45.954Z,4.30
2022-08-14T19:58:57.662Z,4.73
2022-08-14T20:01:08.654Z,4.73
2022-08-14T20:03:23.197Z,5.23
2022-08-14T20:05:42.953Z,5.10
2022-08-14T20:08:05.998Z,5.63
2022-08-14T20:11:12.379Z,5.10
2022-08-14T20:12:59.429Z,5.30
2022-08-14T20:15:15.536Z,4.43
2022-08-14T20:17:27.983Z,4.50
2022-08-14T20:19:37.996Z,4.50
2022-08-14T20:22:00.527Z,4.47
2022-08-14T20:24:31.070Z,4.33
2022-08-14T20:26:46.938Z,4.23
2022-08-14T20:28:55.945Z,4.23
2022-08-14T20:31:16.651Z,4.27
2022-08-14T20:33:27.540Z,4.23
2022-08-14T20:35:38.086Z,3.93
2022-08-14T20:37:49.419Z,4.10
2022-08-14T20:40:23.722Z,4.23
2022-08-14T20:42:54.381Z,4.20
2022-08-14T20:45:24.127Z,3.93
2022-08-14T20:47:50.539Z,4.13
2022-08-14T20:50:20.239Z,3.93
2022-08-14T20:52:34.702Z,4.57
2022-08-14T20:54:50.135Z,4.40
2022-08-14T20:57:07.632Z,4.80
2022-08-14T20:59:17.699Z,4.50
2022-08-14T21:01:46.306Z,4.73
2022-08-14T21:03:58.225Z,4.03
2022-08-14T21:06:17.231Z,4.30
2022-08-14T21:08:28.319Z,4.20
2022-08-14T21:10:44.049Z,4.20
2022-08-14T21:13:25.665Z,4.47
2022-08-14T21:15:23.483Z,4.27
2022-08-14T21:17:37.604Z,4.67
2022-08-14T21:19:46.835Z,4.30
2022-08-14T21:22:01.565Z,4.67
2022-08-14T21:24:38.406Z,4.80
2022-08-14T21:26:52.835Z,4.43
2022-08-14T21:29:11.518Z,4.30
2022-08-14T21:31:20.130Z,4.37
2022-08-14T21:33:31.570Z,4.87
2022-08-14T21:35:46.668Z,4.73
2022-08-14T21:37:55.704Z,4.27
2022-08-14T21:40:39.884Z,4.50
2022-08-14T21:42:33.804Z,4.57
2022-08-14T21:44:47.663Z,4.50
2022-08-14T21:46:59.376Z,4.60
2022-08-14T21:49:12.639Z,5.23
2022-08-14T21:51:53.362Z,4.87
2022-08-14T21:53:58.005Z,4.70
2022-08-14T21:56:11.922Z,4.67
2022-08-14T21:58:52.254Z,4.77
2022-08-14T22:00:50.425Z,4.97
2022-08-14T22:02:58.912Z,4.13
2022-08-14T22:05:10.266Z,4.47
2022-08-14T22:07:19.192Z,4.50
2022-08-14T22:09:38.154Z,4.63
2022-08-14T22:11:56.191Z,4.47
2022-08-14T22:14:25.608Z,4.37
2022-08-14T22:17:03.525Z,4.30
2022-08-14T22:19:04.552Z,4.20
2022-08-14T22:21:20.986Z,5.07
2022-08-14T22:23:30.275Z,4.47
2022-08-14T22:25:41.545Z,4.70
2022-08-14T22:27:56.096Z,4.97
2022-08-14T22:30:08.052Z,4.90
2022-08-14T22:32:20.648Z,5.80
2022-08-14T22:34:48.120Z,5.40
2022-08-14T22:36:58.640Z,5.53
2022-08-14T22:39:10.946Z,5.77
2022-08-14T22:41:27.438Z,5.27
2022-08-14T22:43:38.843Z,5.60
2022-08-14T22:45:55.405Z,6.13
2022-08-14T22:48:04.993Z,5.63
2022-08-14T22:50:31.159Z,5.80
2022-08-14T22:52:49.539Z,5.47
2022-08-14T22:54:58.858Z,5.40
2022-08-14T22:57:10.457Z,5.17
2022-08-14T22:59:19.406Z,4.60
2022-08-14T23:01:56.868Z,4.37
2022-08-14T23:04:07.458Z,4.60
2022-08-14T23:07:02.436Z,4.53
2022-08-14T23:08:57.791Z,5.10
2022-08-14T23:11:12.193Z,4.23
2022-08-14T23:13:21.333Z,4.20
2022-08-14T23:15:30.582Z,4.80
2022-08-14T23:17:40.575Z,4.17
2022-08-14T23:19:49.114Z,4.47
2022-08-14T23:22:07.352Z,4.60
2022-08-14T23:24:18.535Z,4.50
2022-08-14T23:26:48.843Z,4.47
2022-08-14T23:29:00.023Z,4.97
2022-08-14T23:31:10.024Z,4.57
2022-08-14T23:33:19.769Z,5.10
2022-08-14T23:35:29.086Z,4.83
2022-08-14T23:37:43.871Z,5.83
2022-08-14T23:39:54.206Z,5.50
2022-08-14T23:42:07.515Z,5.53
2022-08-14T23:44:17.323Z,4.97
2022-08-14T23:46:34.518Z,5.27
2022-08-14T23:48:46.432Z,5.47
2022-08-14T23:50:55.247Z,5.50
2022-08-14T23:53:07.965Z,5.70
2022-08-14T23:55:19.424Z,5.73
2022-08-14T23:57:30.572Z,6.17
2022-08-14T23:59:44.966Z,5.90
